createdAt,value
2022-09-16T00:02:54.074Z,28.00
2022-09-16T00:07:59.030Z,27.90
2022-09-16T00:13:02.482Z,27.90
2022-09-16T00:18:05.905Z,27.80
2022-09-16T00:23:10.522Z,27.80
2022-09-16T00:28:13.968Z,27.70
2022-09-16T00:33:17.978Z,27.70
2022-09-16T00:38:22.544Z,27.60
2022-09-16T00:43:25.826Z,27.60
2022-09-16T00:48:32.944Z,27.70
2022-09-16T00:53:43.251Z,27.70
2022-09-16T00:58:51.492Z,27.70
2022-09-16T01:03:59.728Z,27.70
2022-09-16T01:09:05.505Z,27.70
2022-09-16T01:14:27.031Z,27.80
2022-09-16T01:20:06.541Z,27.80
2022-09-16T01:25:25.074Z,27.90
2022-09-16T01:30:50.642Z,27.90
2022-09-16T01:36:15.720Z,27.90
2022-09-16T01:41:28.121Z,27.90
2022-09-16T01:46:41.357Z,27.90
2022-09-16T01:51:51.850Z,27.90
2022-09-16T01:57:00.222Z,27.90
2022-09-16T02:02:09.871Z,27.90
2022-09-16T02:07:17.865Z,27.90
2022-09-16T02:12:26.185Z,28.00
2022-09-16T02:17:35.868Z,27.90
2022-09-16T02:22:44.590Z,27.90
2022-09-16T02:27:50.234Z,27.90
2022-09-16T02:32:59.723Z,27.90
2022-09-16T02:38:07.591Z,27.90
2022-09-16T02:43:10.761Z,27.90
2022-09-16T02:48:25.453Z,27.80
2022-09-16T02:53:38.243Z,27.80
2022-09-16T02:58:41.687Z,27.80
2022-09-16T03:03:46.275Z,27.80
2022-09-16T03:08:51.165Z,27.80
2022-09-16T03:14:05.921Z,27.70
2022-09-16T03:19:19.717Z,27.70
2022-09-16T03:24:32.412Z,27.70
2022-09-16T03:29:43.826Z,27.70
2022-09-16T03:34:55.434Z,27.70
2022-09-16T03:40:00.833Z,27.70
2022-09-16T03:45:04.028Z,27.70
2022-09-16T03:50:09.476Z,27.70
2022-09-16T03:55:13.582Z,27.70
2022-09-16T04:00:17.062Z,27.70
2022-09-16T04:05:21.629Z,27.70
2022-09-16T04:10:25.057Z,27.70
2022-09-16T04:15:28.318Z,27.70
2022-09-16T04:20:34.434Z,27.70
2022-09-16T04:25:37.607Z,27.70
2022-09-16T04:30:40.879Z,27.60
2022-09-16T04:35:45.606Z,27.70
2022-09-16T04:40:48.804Z,27.60
2022-09-16T04:45:53.048Z,27.60
2022-09-16T04:51:04.461Z,27.60
2022-09-16T04:56:10.299Z,27.50
2022-09-16T05:01:15.691Z,27.30
2022-09-16T05:06:22.696Z,27.00
2022-09-16T05:11:28.533Z,26.70
2022-09-16T05:16:32.955Z,26.50
2022-09-16T05:21:39.347Z,26.20
2022-09-16T05:26:43.725Z,25.90
2022-09-16T05:31:48.337Z,25.60
2022-09-16T05:36:54.150Z,25.40
2022-09-16T05:41:59.371Z,25.20
2022-09-16T05:47:02.828Z,25.10
2022-09-16T05:52:07.396Z,25.00
2022-09-16T05:57:10.516Z,24.80
2022-09-16T06:02:13.850Z,24.80
2022-09-16T06:07:18.393Z,24.70
2022-09-16T06:12:21.561Z,24.70
2022-09-16T06:17:24.742Z,24.60
2022-09-16T06:22:31.692Z,24.50
2022-09-16T06:27:34.980Z,24.50
2022-09-16T06:32:38.693Z,24.40
2022-09-16T06:37:43.217Z,24.40
2022-09-16T06:42:46.524Z,24.40
2022-09-16T06:47:50.064Z,24.50
2022-09-16T06:52:54.659Z,24.50
2022-09-16T06:57:58.189Z,24.60
2022-09-16T07:03:03.655Z,24.70
2022-09-16T07:08:08.239Z,24.80
2022-09-16T07:13:11.811Z,24.80
2022-09-16T07:18:14.925Z,24.90
2022-09-16T07:23:19.562Z,24.90
2022-09-16T07:28:22.776Z,24.90
2022-09-16T07:33:26.012Z,25.00
2022-09-16T07:38:31.251Z,25.00
2022-09-16T07:43:34.509Z,25.00
2022-09-16T07:48:38.281Z,25.10
2022-09-16T07:53:43.588Z,25.20
2022-09-16T07:58:48.623Z,25.30
2022-09-16T08:03:51.827Z,25.30
2022-09-16T08:09:02.425Z,25.40
2022-09-16T08:14:13.566Z,25.40
2022-09-16T08:19:17.421Z,25.40
2022-09-16T08:24:22.183Z,25.40
2022-09-16T08:29:26.132Z,25.50
2022-09-16T08:34:29.314Z,25.50
2022-09-16T08:39:34.135Z,25.60
2022-09-16T08:44:46.773Z,25.70
2022-09-16T08:49:52.408Z,25.80
2022-09-16T08:55:01.608Z,25.80
2022-09-16T09:00:13.160Z,25.90
2022-09-16T09:05:19.355Z,26.00
2022-09-16T09:10:32.626Z,26.00
2022-09-16T09:15:43.062Z,26.10
2022-09-16T09:20:55.315Z,26.20
2022-09-16T09:26:09.548Z,26.20
2022-09-16T09:31:18.961Z,26.20
2022-09-16T09:36:31.615Z,26.30
2022-09-16T09:41:42.024Z,26.40
2022-09-16T09:46:49.467Z,26.50
2022-09-16T09:51:58.113Z,26.50
2022-09-16T09:57:06.563Z,26.50
2022-09-16T10:02:18.160Z,26.50
2022-09-16T10:07:25.855Z,26.50
2022-09-16T10:12:33.544Z,26.50
2022-09-16T10:17:38.139Z,26.50
2022-09-16T10:22:41.343Z,26.60
2022-09-16T10:27:56.308Z,26.60
2022-09-16T10:33:02.632Z,26.60
2022-09-16T10:38:08.501Z,26.70
2022-09-16T10:43:17.113Z,26.80
2022-09-16T10:48:22.347Z,26.80
2022-09-16T10:53:31.112Z,26.90
2022-09-16T10:58:35.751Z,27.00
2022-09-16T11:04:11.392Z,27.00
2022-09-16T11:09:22.567Z,27.10
2022-09-16T11:14:39.743Z,27.20
2022-09-16T11:19:54.033Z,27.30
2022-09-16T11:25:31.287Z,27.40
2022-09-16T11:30:44.168Z,27.50
2022-09-16T11:36:16.206Z,27.60
2022-09-16T11:41:29.078Z,27.60
2022-09-16T11:46:44.520Z,27.70
2022-09-16T11:52:02.448Z,27.70
2022-09-16T11:57:13.161Z,27.70
2022-09-16T12:02:26.317Z,27.80
2022-09-16T12:07:37.239Z,27.80
2022-09-16T12:12:44.936Z,27.80
2022-09-16T12:17:54.920Z,27.90
2022-09-16T12:23:06.218Z,27.90
2022-09-16T12:28:21.552Z,27.90
2022-09-16T12:33:33.189Z,27.90
2022-09-16T12:38:37.254Z,27.90
2022-09-16T12:44:17.153Z,27.90
2022-09-16T12:50:03.943Z,27.90
2022-09-16T12:55:33.193Z,27.90
2022-09-16T13:00:42.705Z,27.90
2022-09-16T13:05:50.568Z,27.90
2022-09-16T13:11:30.325Z,27.90
2022-09-16T13:16:32.877Z,27.90
2022-09-16T13:21:44.624Z,27.90
2022-09-16T13:26:48.029Z,27.90
2022-09-16T13:31:51.543Z,27.90
2022-09-16T13:36:56.307Z,27.90
2022-09-16T13:42:11.740Z,27.80
2022-09-16T13:47:20.029Z,27.80
2022-09-16T13:52:28.951Z,27.80
2022-09-16T13:57:52.980Z,27.70
2022-09-16T14:03:17.605Z,27.70
2022-09-16T14:08:33.149Z,27.70
2022-09-16T14:13:44.753Z,27.60
2022-09-16T14:18:58.187Z,27.60
2022-09-16T14:24:19.219Z,27.60
2022-09-16T14:29:23.802Z,27.60
2022-09-16T14:34:32.784Z,27.50
2022-09-16T14:39:44.045Z,27.50
2022-09-16T14:44:50.057Z,27.50
2022-09-16T14:49:57.423Z,27.50
2022-09-16T14:55:02.415Z,27.50
2022-09-16T15:00:11.694Z,27.40
2022-09-16T15:05:22.618Z,27.40
2022-09-16T15:12:46.538Z,27.40
2022-09-16T15:15:56.144Z,27.40
2022-09-16T15:21:06.940Z,27.40
2022-09-16T15:26:17.094Z,27.40
2022-09-16T15:31:28.721Z,27.40
2022-09-16T15:36:38.510Z,27.40
2022-09-16T15:41:43.357Z,27.40
2022-09-16T15:46:47.934Z,27.40
2022-09-16T15:51:53.336Z,27.40
2022-09-16T15:57:03.133Z,27.30
2022-09-16T16:02:20.629Z,27.30
2022-09-16T16:07:40.260Z,27.30
2022-09-16T16:12:47.968Z,27.30
2022-09-16T16:17:51.723Z,27.30
2022-09-16T16:22:55.439Z,27.30
2022-09-16T16:28:00.035Z,27.30
2022-09-16T16:33:03.189Z,27.30
2022-09-16T16:38:06.349Z,27.30
2022-09-16T16:43:11.527Z,27.30
2022-09-16T16:48:14.672Z,27.30
2022-09-16T16:53:17.955Z,27.20
2022-09-16T16:58:22.541Z,27.20
2022-09-16T17:03:25.737Z,27.20
2022-09-16T17:08:29.074Z,27.20
2022-09-16T17:13:33.730Z,27.20
2022-09-16T17:18:37.771Z,27.10
2022-09-16T17:23:41.271Z,27.00
2022-09-16T17:28:48.380Z,26.90
2022-09-16T17:33:54.071Z,26.80
2022-09-16T17:38:58.346Z,26.60
2022-09-16T17:44:06.035Z,26.60
2022-09-16T17:49:14.284Z,26.40
2022-09-16T17:54:18.016Z,26.30
2022-09-16T17:59:22.820Z,26.20
2022-09-16T18:04:26.277Z,26.00
2022-09-16T18:09:29.486Z,25.80
2022-09-16T18:14:34.284Z,25.70
2022-09-16T18:19:37.564Z,25.60
2022-09-16T18:24:40.762Z,25.50
2022-09-16T18:29:45.339Z,25.40
2022-09-16T18:34:49.141Z,25.40
2022-09-16T18:39:52.732Z,25.40
2022-09-16T18:44:57.343Z,25.30
2022-09-16T18:50:00.535Z,25.30
2022-09-16T18:55:03.781Z,25.40
2022-09-16T19:00:10.214Z,25.40
2022-09-16T19:05:13.386Z,25.40
2022-09-16T19:10:16.914Z,25.40
2022-09-16T19:15:21.955Z,25.40
2022-09-16T19:20:25.242Z,25.40
2022-09-16T19:25:28.529Z,25.40
2022-09-16T19:30:33.129Z,25.40
2022-09-16T19:35:36.612Z,25.40
2022-09-16T19:40:39.872Z,25.50
2022-09-16T19:45:44.747Z,25.50
2022-09-16T19:50:52.963Z,25.40
2022-09-16T19:56:00.309Z,25.40
2022-09-16T20:01:07.130Z,25.30
2022-09-16T20:06:11.928Z,25.20
2022-09-16T20:11:17.824Z,25.00
2022-09-16T20:16:24.294Z,24.80
2022-09-16T20:21:29.697Z,24.60
2022-09-16T20:26:33.333Z,24.50
2022-09-16T20:31:38.574Z,24.30
2022-09-16T20:36:42.205Z,24.10
2022-09-16T20:41:49.875Z,23.90
2022-09-16T20:46:54.609Z,23.80
2022-09-16T20:51:57.775Z,23.70
2022-09-16T20:57:00.955Z,23.70
2022-09-16T21:02:05.569Z,23.60
2022-09-16T21:07:08.863Z,23.60
2022-09-16T21:12:12.338Z,23.50
2022-09-16T21:17:19.900Z,23.40
2022-09-16T21:22:23.243Z,23.40
2022-09-16T21:27:26.615Z,23.40
2022-09-16T21:32:32.061Z,23.50
2022-09-16T21:37:35.284Z,23.60
2022-09-16T21:42:40.440Z,23.70
2022-09-16T21:47:45.367Z,23.80
2022-09-16T21:52:48.511Z,23.90
2022-09-16T21:57:51.656Z,24.00
2022-09-16T22:02:57.205Z,24.00
2022-09-16T22:08:00.962Z,24.10
2022-09-16T22:13:04.474Z,24.10
2022-09-16T22:18:08.974Z,24.10
2022-09-16T22:23:12.297Z,24.00
2022-09-16T22:28:15.502Z,23.90
2022-09-16T22:33:20.073Z,23.70
2022-09-16T22:38:23.386Z,23.70
2022-09-16T22:43:26.550Z,23.70
2022-09-16T22:48:31.115Z,23.60
2022-09-16T22:53:34.595Z,23.70
2022-09-16T22:58:37.915Z,23.70
2022-09-16T23:03:43.363Z,23.80
2022-09-16T23:08:47.025Z,23.90
2022-09-16T23:13:50.435Z,24.00
2022-09-16T23:18:56.964Z,24.10
2022-09-16T23:24:02.111Z,24.20
2022-09-16T23:29:07.065Z,24.30
2022-09-16T23:34:14.832Z,24.40
2022-09-16T23:39:19.004Z,24.50
2022-09-16T23:44:22.546Z,24.50
2022-09-16T23:49:27.242Z,24.50
2022-09-16T23:54:30.394Z,24.50
2022-09-16T23:59:33.572Z,24.40
